createdAt,value
2019-03-29T00:02:06.051Z,65.66
2019-03-29T00:06:10.902Z,65.45
2019-03-29T00:10:15.901Z,65.60
2019-03-29T00:14:23.377Z,65.42
2019-03-29T00:18:27.187Z,65.59
2019-03-29T00:22:31.936Z,65.84
2019-03-29T00:26:36.663Z,65.78
2019-03-29T00:30:41.988Z,65.90
2019-03-29T00:34:46.832Z,65.88
2019-03-29T00:38:51.694Z,65.94
2019-03-29T00:42:56.448Z,65.89
2019-03-29T00:47:01.198Z,66.06
2019-03-29T00:51:06.046Z,66.11
2019-03-29T00:55:10.807Z,66.22
2019-03-29T00:59:15.525Z,66.14
2019-03-29T01:03:20.582Z,66.25
2019-03-29T01:07:25.702Z,66.47
2019-03-29T01:11:30.431Z,66.64
2019-03-29T01:15:38.257Z,66.74
2019-03-29T01:19:43.466Z,66.88
2019-03-29T01:23:48.228Z,66.79
2019-03-29T01:27:52.919Z,66.84
2019-03-29T01:31:57.674Z,66.78
2019-03-29T01:36:03.265Z,66.57
2019-03-29T01:40:09.133Z,66.27
2019-03-29T01:44:14.087Z,66.02
2019-03-29T01:48:18.833Z,66.06
2019-03-29T01:52:23.867Z,66.22
2019-03-29T01:56:28.615Z,66.29
2019-03-29T02:00:36.033Z,66.19
2019-03-29T02:04:41.103Z,66.37
2019-03-29T02:08:45.794Z,66.49
2019-03-29T02:12:50.946Z,66.43
2019-03-29T02:16:56.025Z,66.34
2019-03-29T02:21:01.111Z,66.23
2019-03-29T02:25:06.582Z,66.06
2019-03-29T02:29:11.329Z,65.92
2019-03-29T02:33:16.170Z,65.84
2019-03-29T02:37:20.908Z,65.69
2019-03-29T02:41:25.751Z,65.57
2019-03-29T02:45:30.804Z,65.53
2019-03-29T02:49:35.877Z,65.56
2019-03-29T02:53:40.729Z,65.64
2019-03-29T02:57:45.821Z,65.54
2019-03-29T03:01:50.805Z,65.40
2019-03-29T03:05:55.583Z,65.13
2019-03-29T03:10:00.600Z,64.94
2019-03-29T03:14:05.442Z,64.88
2019-03-29T03:18:10.246Z,64.98
2019-03-29T03:22:14.978Z,65.16
2019-03-29T03:26:19.722Z,65.31
2019-03-29T03:30:24.490Z,65.29
2019-03-29T03:34:29.212Z,65.18
2019-03-29T03:38:34.064Z,65.16
2019-03-29T03:42:38.819Z,65.20
2019-03-29T03:46:43.588Z,65.19
2019-03-29T03:50:48.318Z,65.20
2019-03-29T03:54:53.047Z,65.18
2019-03-29T03:58:59.172Z,65.27
2019-03-29T04:03:03.892Z,65.27
2019-03-29T04:07:08.663Z,65.35
2019-03-29T04:11:13.383Z,65.53
2019-03-29T04:15:18.567Z,65.52
2019-03-29T04:19:23.392Z,65.29
2019-03-29T04:23:28.135Z,65.28
2019-03-29T04:27:32.842Z,65.50
2019-03-29T04:31:37.593Z,65.72
2019-03-29T04:35:42.436Z,65.79
2019-03-29T04:39:47.174Z,65.72
2019-03-29T04:43:51.933Z,65.55
2019-03-29T04:47:56.664Z,65.59
2019-03-29T04:52:01.408Z,65.64
2019-03-29T04:56:06.149Z,65.75
2019-03-29T05:00:11.115Z,65.92
2019-03-29T05:04:15.840Z,65.96
2019-03-29T05:08:20.589Z,66.01
2019-03-29T05:12:25.417Z,66.25
2019-03-29T05:16:30.176Z,66.59
2019-03-29T05:20:34.873Z,66.94
2019-03-29T05:24:39.605Z,67.26
2019-03-29T05:28:44.473Z,67.60
2019-03-29T05:32:49.259Z,67.94
2019-03-29T05:36:54.057Z,68.28
2019-03-29T05:40:58.889Z,68.60
2019-03-29T05:45:03.647Z,68.79
2019-03-29T05:49:08.475Z,69.04
2019-03-29T05:53:13.594Z,69.26
2019-03-29T05:57:18.787Z,69.50
2019-03-29T06:01:23.514Z,69.75
2019-03-29T06:05:28.360Z,69.93
2019-03-29T06:09:35.081Z,70.17
2019-03-29T06:13:40.098Z,70.44
2019-03-29T06:17:48.771Z,70.69
2019-03-29T06:21:51.389Z,72.07
2019-03-29T06:25:56.158Z,71.90
2019-03-29T06:30:00.854Z,71.68
2019-03-29T06:34:05.654Z,71.86
2019-03-29T06:38:11.307Z,71.77
2019-03-29T06:42:16.115Z,71.19
2019-03-29T06:46:20.865Z,70.96
2019-03-29T06:50:25.659Z,71.34
2019-03-29T06:54:30.350Z,70.43
2019-03-29T06:58:35.084Z,70.55
2019-03-29T07:02:39.838Z,70.41
2019-03-29T07:06:44.583Z,69.93
2019-03-29T07:10:49.383Z,69.65
2019-03-29T07:14:54.127Z,69.89
2019-03-29T07:18:58.874Z,69.54
2019-03-29T07:23:03.636Z,69.38
2019-03-29T07:27:08.332Z,69.21
2019-03-29T07:31:13.116Z,68.79
2019-03-29T07:35:17.886Z,68.83
2019-03-29T07:39:22.736Z,68.48
2019-03-29T07:43:27.543Z,68.53
2019-03-29T07:47:32.266Z,68.03
2019-03-29T07:51:37.076Z,67.99
2019-03-29T07:55:41.839Z,67.71
2019-03-29T07:59:46.697Z,67.41
2019-03-29T08:03:52.526Z,66.97
2019-03-29T08:07:58.062Z,67.11
2019-03-29T08:12:03.257Z,66.69
2019-03-29T08:16:08.034Z,66.18
2019-03-29T08:20:38.189Z,66.04
2019-03-29T08:24:19.590Z,66.10
2019-03-29T08:28:24.360Z,65.89
2019-03-29T08:32:29.556Z,65.44
2019-03-29T08:36:34.660Z,65.06
2019-03-29T08:40:39.428Z,64.33
2019-03-29T08:44:44.178Z,64.32
2019-03-29T08:48:49.060Z,64.15
2019-03-29T08:52:53.748Z,63.89
2019-03-29T08:56:58.506Z,63.44
2019-03-29T09:01:03.276Z,62.10
2019-03-29T09:05:08.408Z,62.84
2019-03-29T09:09:13.153Z,62.79
2019-03-29T09:13:17.925Z,62.06
2019-03-29T09:17:22.659Z,60.76
2019-03-29T09:21:27.420Z,60.39
2019-03-29T09:25:32.114Z,59.32
2019-03-29T09:29:37.081Z,58.05
2019-03-29T09:33:41.927Z,56.96
2019-03-29T09:37:46.718Z,54.12
2019-03-29T09:41:51.526Z,54.50
2019-03-29T09:45:56.384Z,54.84
2019-03-29T09:50:01.129Z,53.38
2019-03-29T09:54:05.877Z,52.77
2019-03-29T09:58:10.672Z,53.50
2019-03-29T10:02:15.528Z,52.67
2019-03-29T10:06:20.436Z,51.77
2019-03-29T10:10:25.190Z,52.45
2019-03-29T10:14:33.321Z,52.55
2019-03-29T10:18:36.555Z,50.03
2019-03-29T10:22:41.332Z,51.87
2019-03-29T10:26:46.082Z,51.59
2019-03-29T10:30:50.947Z,49.75
2019-03-29T10:34:55.834Z,49.33
2019-03-29T10:39:00.938Z,50.12
2019-03-29T10:43:05.994Z,50.69
2019-03-29T10:47:10.898Z,50.57
2019-03-29T10:51:15.637Z,48.80
2019-03-29T10:55:20.387Z,49.43
2019-03-29T10:59:27.749Z,48.87
2019-03-29T11:03:31.722Z,48.57
2019-03-29T11:07:36.475Z,48.39
2019-03-29T11:11:41.180Z,49.36
2019-03-29T11:15:45.941Z,47.35
2019-03-29T11:19:50.780Z,48.63
2019-03-29T11:23:55.533Z,48.33
2019-03-29T11:28:00.780Z,47.51
2019-03-29T11:32:05.502Z,46.79
2019-03-29T11:36:10.517Z,47.90
2019-03-29T11:40:15.626Z,47.65
2019-03-29T11:44:20.384Z,47.00
2019-03-29T11:48:25.244Z,47.40
2019-03-29T11:52:30.057Z,46.84
2019-03-29T11:56:34.781Z,45.63
2019-03-29T12:00:41.187Z,45.46
2019-03-29T12:04:45.892Z,46.20
2019-03-29T12:08:50.631Z,46.75
2019-03-29T12:12:55.374Z,45.56
2019-03-29T12:17:00.136Z,46.05
2019-03-29T12:21:05.048Z,45.21
2019-03-29T12:25:09.811Z,44.94
2019-03-29T12:29:14.622Z,45.03
2019-03-29T12:33:19.416Z,45.37
2019-03-29T12:37:24.206Z,44.79
2019-03-29T12:41:29.167Z,44.76
2019-03-29T12:45:35.580Z,44.38
2019-03-29T12:49:40.576Z,43.30
2019-03-29T12:53:45.439Z,44.74
2019-03-29T12:57:50.170Z,45.03
2019-03-29T13:01:55.103Z,44.72
2019-03-29T13:05:59.824Z,44.70
2019-03-29T13:10:05.150Z,44.66
2019-03-29T13:14:10.979Z,44.91
2019-03-29T13:18:15.879Z,43.35
2019-03-29T13:22:20.856Z,44.92
2019-03-29T13:26:25.679Z,43.68
2019-03-29T13:30:30.435Z,44.92
2019-03-29T13:34:35.265Z,45.07
2019-03-29T13:38:40.031Z,44.87
2019-03-29T13:42:45.001Z,44.46
2019-03-29T13:46:50.382Z,44.30
2019-03-29T13:50:55.139Z,44.46
2019-03-29T13:54:59.901Z,43.94
2019-03-29T13:59:04.770Z,44.71
2019-03-29T14:03:09.604Z,44.85
2019-03-29T14:07:14.377Z,44.60
2019-03-29T14:11:19.284Z,42.20
2019-03-29T14:15:24.053Z,42.68
2019-03-29T14:19:30.505Z,43.76
2019-03-29T14:23:37.711Z,43.64
2019-03-29T14:27:42.600Z,43.78
2019-03-29T14:31:47.664Z,43.16
2019-03-29T14:35:53.282Z,43.86
2019-03-29T14:39:58.018Z,43.61
2019-03-29T14:44:02.769Z,43.56
2019-03-29T14:48:07.546Z,42.71
2019-03-29T14:52:12.316Z,43.87
2019-03-29T14:56:17.052Z,42.96
2019-03-29T15:00:36.534Z,43.14
2019-03-29T15:04:41.689Z,43.31
2019-03-29T15:08:49.731Z,42.89
2019-03-29T15:12:53.993Z,42.64
2019-03-29T15:16:58.752Z,43.55
2019-03-29T15:21:03.489Z,43.09
2019-03-29T15:25:09.662Z,42.79
2019-03-29T15:29:14.671Z,43.39
2019-03-29T15:33:19.417Z,43.49
2019-03-29T15:37:24.194Z,42.22
2019-03-29T15:41:29.702Z,42.35
2019-03-29T15:45:34.967Z,43.58
2019-03-29T15:49:40.398Z,43.73
2019-03-29T15:53:45.908Z,43.30
2019-03-29T15:57:50.637Z,43.08
2019-03-29T16:01:55.762Z,42.82
2019-03-29T16:06:01.684Z,42.97
2019-03-29T16:10:07.085Z,42.97
2019-03-29T16:14:11.827Z,43.23
2019-03-29T16:18:16.690Z,42.89
2019-03-29T16:22:22.710Z,42.32
2019-03-29T16:26:27.551Z,42.51
2019-03-29T16:30:33.925Z,43.37
2019-03-29T16:34:40.431Z,43.64
2019-03-29T16:38:45.514Z,43.73
2019-03-29T16:42:50.827Z,43.60
2019-03-29T16:46:56.486Z,43.38
2019-03-29T16:51:02.171Z,43.67
2019-03-29T16:55:13.656Z,44.11
2019-03-29T16:59:14.706Z,44.26
2019-03-29T17:03:21.067Z,44.49
2019-03-29T17:07:26.154Z,44.64
2019-03-29T17:11:31.931Z,44.60
2019-03-29T17:15:36.666Z,44.48
2019-03-29T17:19:41.748Z,44.48
2019-03-29T17:23:47.666Z,44.59
2019-03-29T17:27:52.918Z,45.00
2019-03-29T17:31:59.694Z,45.25
2019-03-29T17:36:04.970Z,45.04
2019-03-29T17:40:10.587Z,45.18
2019-03-29T17:44:15.401Z,45.58
2019-03-29T17:48:21.235Z,45.77
2019-03-29T17:52:27.014Z,45.81
2019-03-29T17:56:32.385Z,45.91
2019-03-29T18:00:38.378Z,45.90
2019-03-29T18:04:43.097Z,45.79
2019-03-29T18:08:48.890Z,46.09
2019-03-29T18:12:53.908Z,46.61
2019-03-29T18:16:58.762Z,47.09
2019-03-29T18:21:03.481Z,47.35
2019-03-29T18:25:08.660Z,47.54
2019-03-29T18:29:13.936Z,47.58
2019-03-29T18:33:19.919Z,47.48
2019-03-29T18:37:25.295Z,47.46
2019-03-29T18:41:30.837Z,48.17
2019-03-29T18:45:35.502Z,49.59
2019-03-29T18:49:41.422Z,50.30
2019-03-29T18:53:47.269Z,49.99
2019-03-29T18:57:53.168Z,49.99
2019-03-29T19:01:59.784Z,50.19
2019-03-29T19:06:04.900Z,50.07
2019-03-29T19:10:10.534Z,50.52
2019-03-29T19:14:15.842Z,51.00
2019-03-29T19:18:21.015Z,51.28
2019-03-29T19:22:26.200Z,51.39
2019-03-29T19:26:31.070Z,51.47
2019-03-29T19:30:36.458Z,51.24
2019-03-29T19:34:41.427Z,51.49
2019-03-29T19:38:46.613Z,51.49
2019-03-29T19:42:52.498Z,51.61
2019-03-29T19:46:57.568Z,51.66
2019-03-29T19:51:02.563Z,51.60
2019-03-29T19:55:07.556Z,51.65
2019-03-29T19:59:12.349Z,51.59
2019-03-29T20:03:17.136Z,51.64
2019-03-29T20:07:21.977Z,51.64
2019-03-29T20:11:26.856Z,51.61
2019-03-29T20:15:31.655Z,51.74
2019-03-29T20:19:36.493Z,51.92
2019-03-29T20:23:41.564Z,52.09
2019-03-29T20:27:46.375Z,52.27
2019-03-29T20:31:51.155Z,52.29
2019-03-29T20:35:56.104Z,52.33
2019-03-29T20:40:01.725Z,52.31
2019-03-29T20:44:07.351Z,52.42
2019-03-29T20:48:12.907Z,52.56
2019-03-29T20:52:18.673Z,52.68
2019-03-29T20:56:23.691Z,52.76
2019-03-29T21:00:28.453Z,52.75
2019-03-29T21:04:33.365Z,52.90
2019-03-29T21:08:38.155Z,52.91
2019-03-29T21:12:43.457Z,52.94
2019-03-29T21:16:48.656Z,53.00
2019-03-29T21:20:53.448Z,53.21
2019-03-29T21:24:58.244Z,53.44
2019-03-29T21:29:03.163Z,53.53
2019-03-29T21:33:07.918Z,53.63
2019-03-29T21:37:12.959Z,53.69
2019-03-29T21:41:17.720Z,53.75
2019-03-29T21:45:28.726Z,53.88
2019-03-29T21:49:29.072Z,54.01
2019-03-29T21:53:33.887Z,54.10
2019-03-29T21:57:41.622Z,54.18
2019-03-29T22:01:47.537Z,54.27
2019-03-29T22:05:52.424Z,54.41
2019-03-29T22:09:57.245Z,54.47
2019-03-29T22:14:02.000Z,54.60
2019-03-29T22:18:07.090Z,54.75
2019-03-29T22:22:11.889Z,54.88
2019-03-29T22:26:16.828Z,55.02
2019-03-29T22:30:22.183Z,55.30
2019-03-29T22:34:28.458Z,55.56
2019-03-29T22:38:33.636Z,55.69
2019-03-29T22:42:38.832Z,55.69
2019-03-29T22:46:43.766Z,55.67
2019-03-29T22:50:48.718Z,55.66
2019-03-29T22:54:53.532Z,55.75
2019-03-29T22:58:58.428Z,55.72
2019-03-29T23:03:03.368Z,55.72
2019-03-29T23:07:08.739Z,55.75
2019-03-29T23:11:14.994Z,55.97
2019-03-29T23:15:19.876Z,56.09
2019-03-29T23:19:24.689Z,56.20
2019-03-29T23:23:29.553Z,56.25
2019-03-29T23:27:34.750Z,56.31
2019-03-29T23:31:39.495Z,56.28
2019-03-29T23:35:44.538Z,56.31
2019-03-29T23:39:49.375Z,56.46
2019-03-29T23:43:54.137Z,56.77
2019-03-29T23:47:58.884Z,57.06
2019-03-29T23:52:03.665Z,57.28
2019-03-29T23:56:08.385Z,57.47
